createdAt,value
2018-12-24T00:02:01.012Z,12.28
2018-12-24T00:04:29.513Z,12.30
2018-12-24T00:06:58.017Z,12.32
2018-12-24T00:09:38.548Z,12.32
2018-12-24T00:12:07.500Z,12.35
2018-12-24T00:14:37.279Z,12.35
2018-12-24T00:19:39.597Z,12.47
2018-12-24T00:24:42.416Z,12.51
2018-12-24T00:27:10.944Z,12.54
2018-12-24T00:29:39.492Z,12.58
2018-12-24T00:32:08.038Z,12.63
2018-12-24T00:34:36.555Z,12.66
2018-12-24T00:37:05.054Z,12.70
2018-12-24T00:39:33.554Z,12.72
2018-12-24T00:42:02.113Z,12.77
2018-12-24T00:44:30.621Z,12.82
2018-12-24T00:46:59.116Z,12.87
2018-12-24T00:49:27.718Z,12.91
2018-12-24T00:51:56.214Z,12.96
2018-12-24T00:54:24.719Z,12.95
2018-12-24T00:56:53.276Z,12.94
2018-12-24T00:59:21.776Z,12.99
2018-12-24T01:01:50.339Z,13.04
2018-12-24T01:04:18.863Z,13.05
2018-12-24T01:06:47.367Z,13.04
2018-12-24T01:09:15.911Z,13.02
2018-12-24T01:14:18.896Z,13.08
2018-12-24T01:16:47.394Z,13.10
2018-12-24T01:19:55.877Z,13.11
2018-12-24T01:22:24.372Z,13.10
2018-12-24T01:24:52.865Z,13.08
2018-12-24T01:29:55.653Z,13.16
2018-12-24T01:32:43.557Z,13.12
2018-12-24T01:35:12.085Z,13.12
2018-12-24T01:37:40.589Z,13.13
2018-12-24T01:42:42.883Z,13.22
2018-12-24T01:45:11.381Z,13.20
2018-12-24T01:50:13.770Z,13.17
2018-12-24T01:52:42.272Z,13.20
2018-12-24T01:55:10.827Z,13.24
2018-12-24T01:57:39.323Z,13.24
2018-12-24T02:00:07.992Z,13.24
2018-12-24T02:02:36.538Z,13.20
2018-12-24T02:05:44.963Z,13.23
2018-12-24T02:10:47.875Z,13.16
2018-12-24T02:13:28.551Z,13.14
2018-12-24T02:15:57.053Z,13.12
2018-12-24T02:18:25.551Z,13.14
2018-12-24T02:20:54.117Z,13.12
2018-12-24T02:23:22.615Z,13.05
2018-12-24T02:25:51.117Z,12.99
2018-12-24T02:33:48.613Z,12.80
2018-12-24T02:36:17.128Z,12.75
2018-12-24T02:38:45.635Z,12.70
2018-12-24T02:43:48.176Z,12.67
2018-12-24T02:48:50.998Z,12.67
2018-12-24T02:53:53.731Z,12.75
2018-12-24T02:58:56.709Z,12.94
2018-12-24T03:03:59.001Z,13.01
2018-12-24T03:06:27.625Z,13.03
2018-12-24T03:08:56.069Z,13.06
2018-12-24T03:11:24.567Z,13.10
2018-12-24T03:16:39.129Z,13.18
2018-12-24T03:21:41.526Z,13.29
2018-12-24T03:24:10.027Z,13.32
2018-12-24T03:29:12.261Z,13.30
2018-12-24T03:31:40.757Z,13.25
2018-12-24T03:36:43.183Z,13.02
2018-12-24T03:42:04.766Z,12.69
2018-12-24T03:44:33.293Z,12.43
2018-12-24T03:47:01.825Z,12.21
2018-12-24T03:49:30.291Z,12.15
2018-12-24T03:51:58.951Z,12.12
2018-12-24T03:54:27.448Z,12.08
2018-12-24T03:56:55.949Z,12.04
2018-12-24T04:01:58.690Z,11.99
2018-12-24T04:04:27.209Z,11.97
2018-12-24T04:06:55.709Z,11.96
2018-12-24T04:09:24.209Z,11.96
2018-12-24T04:14:26.203Z,11.94
2018-12-24T04:16:54.715Z,11.93
2018-12-24T04:19:23.247Z,11.93
2018-12-24T04:21:51.815Z,11.85
2018-12-24T04:24:20.325Z,11.25
2018-12-24T04:27:08.200Z,10.14
2018-12-24T04:29:36.694Z,8.79
2018-12-24T04:32:05.218Z,7.69
2018-12-24T04:37:26.878Z,6.99
2018-12-24T04:48:10.750Z,6.75
2018-12-24T04:53:13.686Z,6.75
2018-12-24T04:58:16.671Z,6.66
2018-12-24T05:00:45.196Z,6.60
2018-12-24T05:03:13.686Z,6.63
2018-12-24T05:05:42.248Z,6.68
2018-12-24T05:08:30.194Z,6.73
2018-12-24T05:10:58.682Z,6.68
2018-12-24T05:13:27.187Z,6.68
2018-12-24T05:18:29.392Z,6.79
2018-12-24T05:21:10.345Z,6.80
2018-12-24T05:23:38.843Z,6.77
2018-12-24T05:26:09.374Z,6.78
2018-12-24T05:31:30.954Z,6.81
2018-12-24T05:36:33.835Z,6.85
2018-12-24T05:41:36.194Z,6.83
2018-12-24T05:46:38.534Z,6.73
2018-12-24T05:51:40.995Z,6.70
2018-12-24T05:54:09.487Z,6.66
2018-12-24T05:59:12.478Z,6.55
2018-12-24T06:04:15.112Z,6.44
2018-12-24T06:06:43.612Z,6.36
2018-12-24T06:09:12.125Z,6.31
2018-12-24T06:11:40.621Z,6.28
2018-12-24T06:14:09.119Z,6.26
2018-12-24T06:19:11.205Z,6.13
2018-12-24T06:21:39.691Z,6.10
2018-12-24T06:24:20.683Z,6.16
2018-12-24T06:26:49.179Z,6.22
2018-12-24T06:29:17.675Z,6.13
2018-12-24T06:34:20.163Z,6.07
2018-12-24T06:36:48.665Z,6.04
2018-12-24T06:44:29.846Z,5.88
2018-12-24T06:46:58.337Z,5.83
2018-12-24T06:49:26.877Z,5.79
2018-12-24T06:51:55.375Z,5.73
2018-12-24T06:57:17.747Z,5.64
2018-12-24T06:59:46.244Z,5.64
2018-12-24T07:04:48.522Z,5.59
2018-12-24T07:07:17.050Z,5.58
2018-12-24T07:09:45.531Z,5.51
2018-12-24T07:12:14.033Z,5.48
2018-12-24T07:17:16.254Z,5.33
2018-12-24T07:22:19.166Z,5.27
2018-12-24T07:24:47.693Z,5.32
2018-12-24T07:27:16.182Z,5.33
2018-12-24T07:29:44.670Z,5.30
2018-12-24T07:34:47.492Z,5.38
2018-12-24T07:37:15.986Z,5.39
2018-12-24T07:39:44.496Z,5.37
2018-12-24T07:42:12.988Z,5.42
2018-12-24T07:45:00.865Z,5.50
2018-12-24T07:47:29.368Z,5.53
2018-12-24T07:49:57.859Z,5.40
2018-12-24T07:55:00.781Z,5.28
2018-12-24T07:57:29.319Z,5.22
2018-12-24T07:59:57.804Z,5.17
2018-12-24T08:02:26.308Z,5.11
2018-12-24T08:04:54.956Z,5.03
2018-12-24T08:07:23.444Z,5.02
2018-12-24T08:09:51.939Z,5.09
2018-12-24T08:14:54.714Z,4.89
2018-12-24T08:19:57.360Z,4.67
2018-12-24T08:25:00.188Z,4.62
2018-12-24T08:27:28.689Z,4.63
2018-12-24T08:29:57.200Z,4.68
2018-12-24T08:32:25.826Z,4.76
2018-12-24T08:37:27.958Z,4.81
2018-12-24T08:39:56.458Z,4.82
2018-12-24T08:44:59.186Z,4.76
2018-12-24T08:50:02.071Z,4.79
2018-12-24T08:55:23.649Z,4.78
2018-12-24T08:58:11.452Z,4.74
2018-12-24T09:00:59.191Z,4.69
2018-12-24T09:03:27.709Z,4.72
2018-12-24T09:05:56.203Z,4.81
2018-12-24T09:08:24.701Z,4.86
2018-12-24T09:10:53.217Z,4.94
2018-12-24T09:13:21.714Z,4.97
2018-12-24T09:15:50.203Z,5.00
2018-12-24T09:20:53.017Z,5.04
2018-12-24T09:25:56.487Z,5.09
2018-12-24T09:28:24.975Z,5.10
2018-12-24T09:30:53.542Z,5.12
2018-12-24T09:33:22.093Z,5.13
2018-12-24T09:35:50.589Z,5.15
2018-12-24T09:38:19.121Z,5.17
2018-12-24T09:40:47.613Z,5.13
2018-12-24T09:43:35.270Z,5.14
2018-12-24T09:46:03.773Z,5.18
2018-12-24T09:48:32.270Z,5.18
2018-12-24T09:51:00.783Z,5.10
2018-12-24T09:53:29.273Z,5.06
2018-12-24T09:55:57.770Z,5.05
2018-12-24T10:00:59.982Z,5.03
2018-12-24T10:03:28.478Z,5.01
2018-12-24T10:06:37.106Z,5.03
2018-12-24T10:14:53.959Z,5.25
2018-12-24T10:17:22.452Z,5.26
2018-12-24T10:19:50.986Z,5.29
2018-12-24T10:22:19.499Z,5.32
2018-12-24T10:24:47.986Z,5.29
2018-12-24T10:27:16.530Z,5.32
2018-12-24T10:29:45.023Z,5.39
2018-12-24T10:35:06.810Z,5.39
2018-12-24T10:37:35.302Z,5.34
2018-12-24T10:40:43.812Z,5.36
2018-12-24T10:43:12.307Z,5.32
2018-12-24T10:46:00.078Z,5.34
2018-12-24T10:48:28.574Z,5.33
2018-12-24T10:50:57.071Z,5.25
2018-12-24T10:53:25.594Z,5.21
2018-12-24T10:55:54.086Z,5.24
2018-12-24T10:58:22.579Z,5.26
2018-12-24T11:03:25.112Z,5.29
2018-12-24T11:08:27.916Z,5.41
2018-12-24T11:13:30.480Z,5.77
2018-12-24T11:15:59.091Z,5.91
2018-12-24T11:18:27.601Z,6.01
2018-12-24T11:20:56.094Z,6.10
2018-12-24T11:23:24.778Z,6.06
2018-12-24T11:25:53.268Z,6.05
2018-12-24T11:28:21.754Z,6.09
2018-12-24T11:30:50.349Z,6.06
2018-12-24T11:33:18.843Z,6.05
2018-12-24T11:35:47.338Z,6.09
2018-12-24T11:38:15.939Z,6.06
2018-12-24T11:40:44.436Z,6.06
2018-12-24T11:43:12.933Z,6.13
2018-12-24T11:45:41.546Z,6.15
2018-12-24T11:48:10.039Z,6.13
2018-12-24T11:50:38.531Z,6.11
2018-12-24T11:55:40.714Z,6.11
2018-12-24T11:58:13.428Z,6.15
2018-12-24T12:03:13.688Z,6.08
2018-12-24T12:08:16.658Z,6.03
2018-12-24T12:10:45.270Z,6.04
2018-12-24T12:13:13.768Z,6.11
2018-12-24T12:15:43.022Z,6.20
2018-12-24T12:18:12.582Z,6.28
2018-12-24T12:20:41.076Z,6.29
2018-12-24T12:23:09.575Z,6.26
2018-12-24T12:25:38.204Z,6.20
2018-12-24T12:28:06.700Z,6.23
2018-12-24T12:30:35.196Z,6.27
2018-12-24T12:35:38.110Z,6.37
2018-12-24T12:40:41.125Z,6.44
2018-12-24T12:45:51.150Z,6.49
2018-12-24T12:48:14.360Z,6.49
2018-12-24T12:50:42.852Z,6.44
2018-12-24T12:53:11.346Z,6.39
2018-12-24T12:55:39.870Z,6.36
2018-12-24T12:58:08.369Z,6.30
2018-12-24T13:00:36.872Z,6.25
2018-12-24T13:03:05.429Z,6.24
2018-12-24T13:05:33.946Z,6.26
2018-12-24T13:08:02.463Z,6.26
2018-12-24T13:13:05.502Z,6.24
2018-12-24T13:15:34.036Z,6.26
2018-12-24T13:18:02.618Z,6.29
2018-12-24T13:20:31.119Z,6.24
2018-12-24T13:22:59.723Z,6.16
2018-12-24T13:25:28.267Z,6.08
2018-12-24T13:27:56.833Z,6.07
2018-12-24T13:32:59.291Z,6.00
2018-12-24T13:35:27.806Z,5.96
2018-12-24T13:37:56.307Z,5.96
2018-12-24T13:40:24.808Z,5.96
2018-12-24T13:45:27.326Z,5.89
2018-12-24T13:48:02.852Z,5.83
2018-12-24T13:50:31.327Z,5.83
2018-12-24T13:52:59.820Z,5.82
2018-12-24T13:58:01.945Z,5.81
2018-12-24T14:00:30.446Z,5.80
2018-12-24T14:02:59.048Z,5.81
2018-12-24T14:05:27.538Z,5.86
2018-12-24T14:07:56.038Z,5.87
2018-12-24T14:12:58.229Z,5.88
2018-12-24T14:15:26.725Z,5.88
2018-12-24T14:20:29.209Z,5.91
2018-12-24T14:22:57.730Z,5.95
2018-12-24T14:25:26.227Z,5.91
2018-12-24T14:28:06.747Z,5.91
2018-12-24T14:30:35.255Z,6.05
2018-12-24T14:33:03.752Z,6.09
2018-12-24T14:38:05.852Z,6.14
2018-12-24T14:40:34.352Z,6.10
2018-12-24T14:43:02.902Z,6.01
2018-12-24T14:45:31.404Z,5.95
2018-12-24T14:47:59.897Z,5.91
2018-12-24T14:53:02.876Z,5.90
2018-12-24T14:58:05.768Z,5.59
2018-12-24T15:00:34.324Z,5.44
2018-12-24T15:03:02.819Z,5.35
2018-12-24T15:05:31.314Z,5.31
2018-12-24T15:10:33.454Z,5.20
2018-12-24T15:13:01.962Z,5.17
2018-12-24T15:18:04.395Z,5.16
2018-12-24T15:21:13.148Z,5.14
2018-12-24T15:23:41.638Z,5.12
2018-12-24T15:26:10.135Z,5.07
2018-12-24T15:31:12.416Z,5.07
2018-12-24T15:33:40.935Z,5.11
2018-12-24T15:36:09.423Z,5.17
2018-12-24T15:38:37.964Z,5.21
2018-12-24T15:43:59.832Z,5.19
2018-12-24T15:46:28.327Z,5.17
2018-12-24T15:48:56.932Z,5.22
2018-12-24T15:51:25.434Z,5.32
2018-12-24T15:53:53.926Z,5.43
2018-12-24T15:58:56.367Z,5.51
2018-12-24T16:01:24.863Z,5.56
2018-12-24T16:03:53.466Z,5.59
2018-12-24T16:06:21.971Z,5.62
2018-12-24T16:08:50.513Z,5.67
2018-12-24T16:11:19.044Z,5.68
2018-12-24T16:13:47.547Z,5.66
2018-12-24T16:16:16.038Z,5.64
2018-12-24T16:18:44.570Z,5.66
2018-12-24T16:21:13.150Z,5.72
2018-12-24T16:23:41.648Z,5.78
2018-12-24T16:26:10.252Z,5.82
2018-12-24T16:28:38.747Z,5.87
2018-12-24T16:31:07.238Z,5.86
2018-12-24T16:36:10.124Z,5.83
2018-12-24T16:38:38.663Z,5.83
2018-12-24T16:41:07.227Z,5.77
2018-12-24T16:43:35.885Z,5.81
2018-12-24T16:46:04.472Z,5.81
2018-12-24T16:48:32.968Z,5.84
2018-12-24T16:51:01.463Z,5.84
2018-12-24T16:53:30.015Z,5.78
2018-12-24T16:55:58.507Z,5.67
2018-12-24T16:58:27.008Z,5.63
2018-12-24T17:00:55.558Z,5.60
2018-12-24T17:03:24.063Z,5.57
2018-12-24T17:05:52.573Z,5.53
2018-12-24T17:10:54.829Z,5.50
2018-12-24T17:13:23.326Z,5.48
2018-12-24T17:18:26.306Z,5.39
2018-12-24T17:23:28.715Z,5.36
2018-12-24T17:25:57.219Z,5.37
2018-12-24T17:30:59.729Z,5.35
2018-12-24T17:33:28.257Z,5.38
2018-12-24T17:36:08.611Z,5.38
2018-12-24T17:41:12.751Z,5.32
2018-12-24T17:43:41.259Z,5.29
2018-12-24T17:46:09.991Z,5.28
2018-12-24T17:48:38.478Z,5.33
2018-12-24T17:51:06.989Z,5.39
2018-12-24T17:53:35.501Z,5.43
2018-12-24T17:56:03.992Z,5.45
2018-12-24T17:58:32.507Z,5.47
2018-12-24T18:01:01.004Z,5.45
2018-12-24T18:03:29.497Z,5.40
2018-12-24T18:08:31.456Z,5.37
2018-12-24T18:13:54.343Z,5.34
2018-12-24T18:16:22.833Z,5.32
2018-12-24T18:18:51.335Z,5.26
2018-12-24T18:23:53.553Z,5.11
2018-12-24T18:26:22.047Z,5.06
2018-12-24T18:28:50.592Z,5.05
2018-12-24T18:31:20.031Z,5.04
2018-12-24T18:33:49.377Z,5.01
2018-12-24T18:36:17.942Z,4.97
2018-12-24T18:38:58.665Z,4.98
2018-12-24T18:44:01.172Z,4.90
2018-12-24T18:46:29.719Z,4.85
2018-12-24T18:48:58.209Z,4.78
2018-12-24T18:51:26.703Z,4.74
2018-12-24T18:56:28.768Z,4.70
2018-12-24T18:58:57.426Z,4.74
2018-12-24T19:03:59.624Z,4.74
2018-12-24T19:06:28.122Z,4.76
2018-12-24T19:08:56.649Z,4.75
2018-12-24T19:11:25.148Z,4.74
2018-12-24T19:13:53.638Z,4.72
2018-12-24T19:16:22.172Z,4.71
2018-12-24T19:18:50.672Z,4.71
2018-12-24T19:21:19.168Z,4.74
2018-12-24T19:26:22.050Z,4.73
2018-12-24T19:31:24.306Z,4.68
2018-12-24T19:36:27.334Z,4.72
2018-12-24T19:41:29.751Z,4.77
2018-12-24T19:43:58.246Z,4.80
2018-12-24T19:46:26.803Z,4.79
2018-12-24T19:48:55.635Z,4.78
2018-12-24T19:51:24.128Z,4.82
2018-12-24T19:53:52.656Z,4.82
2018-12-24T19:56:21.150Z,4.80
2018-12-24T19:58:49.645Z,4.83
2018-12-24T20:03:52.169Z,4.90
2018-12-24T20:06:20.673Z,4.91
2018-12-24T20:11:23.137Z,4.95
2018-12-24T20:13:51.666Z,4.99
2018-12-24T20:16:20.160Z,5.03
2018-12-24T20:18:48.657Z,5.05
2018-12-24T20:23:50.839Z,5.04
2018-12-24T20:26:19.360Z,5.03
2018-12-24T20:31:22.412Z,5.05
2018-12-24T20:33:50.910Z,5.04
2018-12-24T20:36:19.426Z,5.05
2018-12-24T20:38:47.924Z,5.08
2018-12-24T20:41:16.414Z,5.09
2018-12-24T20:43:57.250Z,5.11
2018-12-24T20:46:25.750Z,5.14
2018-12-24T20:48:54.248Z,5.18
2018-12-24T20:53:57.060Z,5.23
2018-12-24T20:58:59.931Z,5.31
2018-12-24T21:01:28.426Z,5.36
2018-12-24T21:06:30.637Z,5.45
2018-12-24T21:08:59.125Z,5.43
2018-12-24T21:14:01.623Z,5.33
2018-12-24T21:16:30.110Z,5.30
2018-12-24T21:18:58.644Z,5.29
2018-12-24T21:21:27.140Z,5.26
2018-12-24T21:23:55.631Z,5.23
2018-12-24T21:28:57.923Z,5.22
2018-12-24T21:36:55.764Z,5.12
2018-12-24T21:39:24.254Z,5.14
2018-12-24T21:41:52.792Z,5.13
2018-12-24T21:44:21.284Z,5.13
2018-12-24T21:46:49.782Z,5.12
2018-12-24T21:51:52.608Z,5.19
2018-12-24T21:56:55.484Z,5.16
2018-12-24T22:01:58.366Z,5.09
2018-12-24T22:07:01.162Z,5.06
2018-12-24T22:09:29.650Z,5.03
2018-12-24T22:14:32.083Z,4.97
2018-12-24T22:22:12.856Z,4.97
2018-12-24T22:24:41.348Z,4.97
2018-12-24T22:29:43.561Z,4.93
2018-12-24T22:32:12.049Z,4.92
2018-12-24T22:37:14.169Z,4.96
2018-12-24T22:39:42.673Z,4.95
2018-12-24T22:42:11.196Z,4.93
2018-12-24T22:44:39.686Z,4.97
2018-12-24T22:47:08.182Z,4.98
2018-12-24T22:49:36.718Z,4.99
2018-12-24T22:52:05.219Z,5.00
2018-12-24T22:54:33.704Z,5.01
2018-12-24T22:59:36.312Z,5.02
2018-12-24T23:04:39.998Z,5.05
2018-12-24T23:07:27.833Z,5.05
2018-12-24T23:12:29.819Z,5.08
2018-12-24T23:14:58.310Z,5.11
2018-12-24T23:17:26.864Z,5.11
2018-12-24T23:19:55.362Z,5.12
2018-12-24T23:22:23.858Z,5.17
2018-12-24T23:27:26.712Z,5.24
2018-12-24T23:32:29.574Z,5.26
2018-12-24T23:37:32.382Z,5.22
2018-12-24T23:40:00.871Z,5.23
2018-12-24T23:45:02.866Z,5.16
2018-12-24T23:47:31.368Z,5.10
2018-12-24T23:52:33.810Z,5.07
2018-12-24T23:55:02.368Z,5.04
2018-12-24T23:57:32.548Z,5.03
